Trenton, Michigan
Current Conditions -  °F | °C
As of 2:15 PM on Friday 24 Oct 2014 (Local Time) from KONZ Reporting Station
Overcast Overcast  
Wind Chill: 55°   Ceiling: 4400
Heat Index: 55°   Visibility: 7mi
Dew Point: 50°   Wind: 10mph
Humidity: 82%   Direction: 180°S
Pressure: 30.01"   Gusts: NA
Location:  42.14°N, 83.18°W
Report Text: KONZ 241815Z AUTO 18009KT 7SM OVC044 13/10 A3001 RMK AO2
Loading
Personal Weather Stations






























Interactive Weather Map
Tropical Storm Tracking
New forecast layout! Learn more

10-Day Weather Forecast

Advertisements
Track Severe Weather on mobile